Aérodrome :
LOGIN :

S'inscrire | Disclaimer

   EN    FR    IT 

 










Légende :    VFR   VFR Marginal   IFR   IFR Intensif   IFR Très Intensif
Visi : 
Plafond : 
>= 8 km
>= 3000ft
5 à 8 km
1000 à 3000 ft
1500m à 5 km
500 à 1000 ft
800 à 1500m
200 à 500 ft
< 800m
< 200 ft
Symboles :   Orages  Brouillard  Fortes neiges  Fortes précipitations  Vent > 20 kt
SIGMETs :   Divers  Orages  Givrage  Turbulence  Onde Orograph.  Cendres Volcan.






- Altitude de l'aérodrome : 538 ft
- Code IATA : TNF


LFPN - Toussus Le Noble

DERNIER METAR :
  • 220500Z AUTO 16007KT 9999 BKN007 BKN041 BKN058 05/04 Q1002

METARs EXPIRÉS :
  • 220430Z AUTO 16008KT 9999 OVC008 05/04 Q1002
  • 220400Z AUTO 17007KT 9999 OVC008 05/04 Q1002
  • 220330Z AUTO 18010KT 9999 OVC008 06/04 Q1002
  • 220300Z AUTO 18010KT 9999 OVC009 06/05 Q1002
  • 220230Z AUTO 20011KT 9999 OVC009 07/05 Q1002

Prévision TAF périmée.
ATIS : +33 1 39 56 54 70



MET'MAP, la Météo Aéronautique d'un coup d'oeil ! - Copyright ORBIFLY Décembre 2007 - Disclaimer

ORBIFLY MET'MAP TEAM :

Programmation & Développement : Alexandra Zaïnal
Conception & Développement : Baudouin d'Aumeries
Co-Programmation & Développement : Marc-Olivier Méhu
Soutien technique & logistique : Manuel Goepfert

Contact : metmap@orbifly.com




SOURCES & CREDITS :

   NOAA